sensor_id;sensor_type;location;lat;lon;timestamp;temperature;humidity
54938;DHT22;52756;52.826;6.214;2022-08-01T00:01:43;19.90;74.40
54938;DHT22;52756;52.826;6.214;2022-08-01T00:04:09;19.90;74.50
54938;DHT22;52756;52.826;6.214;2022-08-01T00:06:35;19.90;74.50
54938;DHT22;52756;52.826;6.214;2022-08-01T00:09:00;19.90;74.40
54938;DHT22;52756;52.826;6.214;2022-08-01T00:11:26;19.90;74.30
54938;DHT22;52756;52.826;6.214;2022-08-01T00:13:52;19.90;74.40
54938;DHT22;52756;52.826;6.214;2022-08-01T00:16:18;19.90;74.30
54938;DHT22;52756;52.826;6.214;2022-08-01T00:18:43;19.90;74.30
54938;DHT22;52756;52.826;6.214;2022-08-01T00:21:09;19.90;74.20
54938;DHT22;52756;52.826;6.214;2022-08-01T00:23:35;19.90;74.20
54938;DHT22;52756;52.826;6.214;2022-08-01T00:26:00;19.90;74.20
54938;DHT22;52756;52.826;6.214;2022-08-01T00:28:26;19.90;74.20
54938;DHT22;52756;52.826;6.214;2022-08-01T00:30:52;19.90;74.10
54938;DHT22;52756;52.826;6.214;2022-08-01T00:33:18;19.90;74.10
54938;DHT22;52756;52.826;6.214;2022-08-01T00:35:43;19.90;74.10
54938;DHT22;52756;52.826;6.214;2022-08-01T00:38:09;19.90;74.10
54938;DHT22;52756;52.826;6.214;2022-08-01T00:40:36;19.90;74.00
54938;DHT22;52756;52.826;6.214;2022-08-01T00:43:02;19.90;73.90
54938;DHT22;52756;52.826;6.214;2022-08-01T00:45:27;19.90;73.90
54938;DHT22;52756;52.826;6.214;2022-08-01T00:47:53;19.90;73.90
54938;DHT22;52756;52.826;6.214;2022-08-01T00:50:19;19.90;73.80
54938;DHT22;52756;52.826;6.214;2022-08-01T00:52:45;19.90;73.80
54938;DHT22;52756;52.826;6.214;2022-08-01T00:55:12;19.90;73.60
54938;DHT22;52756;52.826;6.214;2022-08-01T00:57:39;19.90;73.60
54938;DHT22;52756;52.826;6.214;2022-08-01T01:00:06;19.90;73.60
54938;DHT22;52756;52.826;6.214;2022-08-01T01:02:32;19.90;73.60
54938;DHT22;52756;52.826;6.214;2022-08-01T01:04:59;19.90;73.50
54938;DHT22;52756;52.826;6.214;2022-08-01T01:07:41;19.90;73.90
54938;DHT22;52756;52.826;6.214;2022-08-01T01:10:48;19.90;73.50
54938;DHT22;52756;52.826;6.214;2022-08-01T01:13:26;19.90;73.20
54938;DHT22;52756;52.826;6.214;2022-08-01T01:16:09;19.80;73.40
54938;DHT22;52756;52.826;6.214;2022-08-01T01:18:39;19.90;73.50
54938;DHT22;52756;52.826;6.214;2022-08-01T01:24:11;19.80;73.50
54938;DHT22;52756;52.826;6.214;2022-08-01T01:29:40;19.80;73.50
54938;DHT22;52756;52.826;6.214;2022-08-01T01:32:14;19.80;73.60
54938;DHT22;52756;52.826;6.214;2022-08-01T01:34:44;19.80;73.50
54938;DHT22;52756;52.826;6.214;2022-08-01T01:37:16;19.80;73.50
54938;DHT22;52756;52.826;6.214;2022-08-01T01:39:43;19.80;73.60
54938;DHT22;52756;52.826;6.214;2022-08-01T01:42:10;19.80;73.80
54938;DHT22;52756;52.826;6.214;2022-08-01T01:44:37;19.80;74.00
54938;DHT22;52756;52.826;6.214;2022-08-01T01:47:04;19.80;74.20
54938;DHT22;52756;52.826;6.214;2022-08-01T01:49:30;19.80;74.30
54938;DHT22;52756;52.826;6.214;2022-08-01T01:51:58;19.80;74.80
54938;DHT22;52756;52.826;6.214;2022-08-01T01:54:28;19.80;74.40
54938;DHT22;52756;52.826;6.214;2022-08-01T01:56:58;19.80;74.40
54938;DHT22;52756;52.826;6.214;2022-08-01T01:59:27;19.80;74.40
54938;DHT22;52756;52.826;6.214;2022-08-01T02:01:56;19.80;74.20
54938;DHT22;52756;52.826;6.214;2022-08-01T02:04:24;19.70;74.10
54938;DHT22;52756;52.826;6.214;2022-08-01T02:06:51;19.70;74.10
54938;DHT22;52756;52.826;6.214;2022-08-01T02:09:19;19.70;74.00
54938;DHT22;52756;52.826;6.214;2022-08-01T02:11:47;19.70;73.80
54938;DHT22;52756;52.826;6.214;2022-08-01T02:14:14;19.70;73.80
54938;DHT22;52756;52.826;6.214;2022-08-01T02:16:44;19.70;73.70
54938;DHT22;52756;52.826;6.214;2022-08-01T02:19:10;19.70;73.70
54938;DHT22;52756;52.826;6.214;2022-08-01T02:22:06;19.70;73.70
54938;DHT22;52756;52.826;6.214;2022-08-01T02:24:36;19.70;73.70
54938;DHT22;52756;52.826;6.214;2022-08-01T02:27:10;19.70;73.70
54938;DHT22;52756;52.826;6.214;2022-08-01T02:29:50;19.70;73.70
54938;DHT22;52756;52.826;6.214;2022-08-01T02:32:30;19.70;73.80
54938;DHT22;52756;52.826;6.214;2022-08-01T02:34:57;19.70;73.90
54938;DHT22;52756;52.826;6.214;2022-08-01T02:37:26;19.70;73.80
54938;DHT22;52756;52.826;6.214;2022-08-01T02:39:54;19.70;73.80
54938;DHT22;52756;52.826;6.214;2022-08-01T02:42:23;19.70;73.80
54938;DHT22;52756;52.826;6.214;2022-08-01T02:44:52;19.70;73.80
54938;DHT22;52756;52.826;6.214;2022-08-01T02:47:20;19.60;73.60
54938;DHT22;52756;52.826;6.214;2022-08-01T02:49:48;19.60;73.50
54938;DHT22;52756;52.826;6.214;2022-08-01T02:52:16;19.60;73.40
54938;DHT22;52756;52.826;6.214;2022-08-01T02:54:49;19.60;73.40
54938;DHT22;52756;52.826;6.214;2022-08-01T02:57:16;19.50;73.20
54938;DHT22;52756;52.826;6.214;2022-08-01T02:59:44;19.50;73.20
54938;DHT22;52756;52.826;6.214;2022-08-01T03:02:11;19.50;73.20
54938;DHT22;52756;52.826;6.214;2022-08-01T03:04:40;19.50;73.10
54938;DHT22;52756;52.826;6.214;2022-08-01T03:07:09;19.50;73.20
54938;DHT22;52756;52.826;6.214;2022-08-01T03:09:44;19.40;73.10
54938;DHT22;52756;52.826;6.214;2022-08-01T03:12:16;19.40;73.00
54938;DHT22;52756;52.826;6.214;2022-08-01T03:14:44;19.40;73.00
54938;DHT22;52756;52.826;6.214;2022-08-01T03:17:10;19.30;73.00
54938;DHT22;52756;52.826;6.214;2022-08-01T03:19:39;19.30;73.00
54938;DHT22;52756;52.826;6.214;2022-08-01T03:22:08;19.30;73.10
54938;DHT22;52756;52.826;6.214;2022-08-01T03:24:36;19.30;73.10
54938;DHT22;52756;52.826;6.214;2022-08-01T03:27:04;19.30;73.00
54938;DHT22;52756;52.826;6.214;2022-08-01T03:29:32;19.30;73.10
54938;DHT22;52756;52.826;6.214;2022-08-01T03:31:58;19.30;73.00
54938;DHT22;52756;52.826;6.214;2022-08-01T03:34:25;19.30;73.00
54938;DHT22;52756;52.826;6.214;2022-08-01T03:37:01;19.30;73.00
54938;DHT22;52756;52.826;6.214;2022-08-01T03:39:34;19.30;72.90
54938;DHT22;52756;52.826;6.214;2022-08-01T03:42:09;19.20;72.80
54938;DHT22;52756;52.826;6.214;2022-08-01T03:44:37;19.20;72.80
54938;DHT22;52756;52.826;6.214;2022-08-01T03:47:07;19.20;72.90
54938;DHT22;52756;52.826;6.214;2022-08-01T03:49:37;19.20;72.80
54938;DHT22;52756;52.826;6.214;2022-08-01T03:52:06;19.20;72.80
54938;DHT22;52756;52.826;6.214;2022-08-01T03:54:36;19.20;72.70
54938;DHT22;52756;52.826;6.214;2022-08-01T03:57:03;19.30;72.70
54938;DHT22;52756;52.826;6.214;2022-08-01T03:59:30;19.20;72.50
54938;DHT22;52756;52.826;6.214;2022-08-01T04:01:58;19.30;72.50
54938;DHT22;52756;52.826;6.214;2022-08-01T04:04:24;19.30;72.40
54938;DHT22;52756;52.826;6.214;2022-08-01T04:06:50;19.30;72.40
54938;DHT22;52756;52.826;6.214;2022-08-01T04:09:20;19.30;72.30
54938;DHT22;52756;52.826;6.214;2022-08-01T04:11:47;19.30;72.30
54938;DHT22;52756;52.826;6.214;2022-08-01T04:14:13;19.30;72.20
54938;DHT22;52756;52.826;6.214;2022-08-01T04:16:39;19.30;72.20
54938;DHT22;52756;52.826;6.214;2022-08-01T04:19:05;19.30;72.20
54938;DHT22;52756;52.826;6.214;2022-08-01T04:21:34;19.30;72.30
54938;DHT22;52756;52.826;6.214;2022-08-01T04:24:10;19.30;72.40
54938;DHT22;52756;52.826;6.214;2022-08-01T04:26:40;19.30;72.30
54938;DHT22;52756;52.826;6.214;2022-08-01T04:29:08;19.30;72.30
54938;DHT22;52756;52.826;6.214;2022-08-01T04:31:35;19.30;72.30
54938;DHT22;52756;52.826;6.214;2022-08-01T04:34:03;19.30;72.40
54938;DHT22;52756;52.826;6.214;2022-08-01T04:36:33;19.30;72.40
54938;DHT22;52756;52.826;6.214;2022-08-01T04:39:00;19.30;72.40
54938;DHT22;52756;52.826;6.214;2022-08-01T04:41:26;19.20;72.30
54938;DHT22;52756;52.826;6.214;2022-08-01T04:43:53;19.20;72.20
54938;DHT22;52756;52.826;6.214;2022-08-01T04:46:20;19.20;72.30
54938;DHT22;52756;52.826;6.214;2022-08-01T04:48:48;19.20;72.30
54938;DHT22;52756;52.826;6.214;2022-08-01T04:51:16;19.20;72.30
54938;DHT22;52756;52.826;6.214;2022-08-01T04:53:43;19.20;72.30
54938;DHT22;52756;52.826;6.214;2022-08-01T04:56:09;19.20;72.30
54938;DHT22;52756;52.826;6.214;2022-08-01T04:58:35;19.20;72.20
54938;DHT22;52756;52.826;6.214;2022-08-01T05:01:00;19.20;72.30
54938;DHT22;52756;52.826;6.214;2022-08-01T05:03:26;19.20;72.20
54938;DHT22;52756;52.826;6.214;2022-08-01T05:05:51;19.20;72.20
54938;DHT22;52756;52.826;6.214;2022-08-01T05:08:17;19.10;72.00
54938;DHT22;52756;52.826;6.214;2022-08-01T05:10:43;19.20;72.00
54938;DHT22;52756;52.826;6.214;2022-08-01T05:13:09;19.10;71.90
54938;DHT22;52756;52.826;6.214;2022-08-01T05:15:35;19.10;71.80
54938;DHT22;52756;52.826;6.214;2022-08-01T05:18:02;19.10;71.70
54938;DHT22;52756;52.826;6.214;2022-08-01T05:20:28;19.10;71.60
54938;DHT22;52756;52.826;6.214;2022-08-01T05:22:53;19.10;71.50
54938;DHT22;52756;52.826;6.214;2022-08-01T05:25:19;19.10;71.60
54938;DHT22;52756;52.826;6.214;2022-08-01T05:27:44;19.10;71.60
54938;DHT22;52756;52.826;6.214;2022-08-01T05:30:10;19.10;71.60
54938;DHT22;52756;52.826;6.214;2022-08-01T05:32:36;19.10;71.60
54938;DHT22;52756;52.826;6.214;2022-08-01T05:35:02;19.10;71.40
54938;DHT22;52756;52.826;6.214;2022-08-01T05:37:29;19.00;71.20
54938;DHT22;52756;52.826;6.214;2022-08-01T05:39:54;19.00;71.10
54938;DHT22;52756;52.826;6.214;2022-08-01T05:42:20;19.00;71.10
54938;DHT22;52756;52.826;6.214;2022-08-01T05:44:45;19.00;71.10
54938;DHT22;52756;52.826;6.214;2022-08-01T05:47:13;19.00;71.10
54938;DHT22;52756;52.826;6.214;2022-08-01T05:49:38;18.90;71.70
54938;DHT22;52756;52.826;6.214;2022-08-01T05:52:04;19.00;71.50
54938;DHT22;52756;52.826;6.214;2022-08-01T05:54:30;19.00;71.60
54938;DHT22;52756;52.826;6.214;2022-08-01T05:56:56;19.00;71.60
54938;DHT22;52756;52.826;6.214;2022-08-01T05:59:25;19.00;71.40
54938;DHT22;52756;52.826;6.214;2022-08-01T06:01:51;19.00;71.20
54938;DHT22;52756;52.826;6.214;2022-08-01T06:04:17;19.00;70.80
54938;DHT22;52756;52.826;6.214;2022-08-01T06:06:43;19.00;70.50
54938;DHT22;52756;52.826;6.214;2022-08-01T06:09:08;19.00;70.30
54938;DHT22;52756;52.826;6.214;2022-08-01T06:11:34;19.00;70.80
54938;DHT22;52756;52.826;6.214;2022-08-01T06:14:00;19.00;70.50
54938;DHT22;52756;52.826;6.214;2022-08-01T06:16:25;19.00;70.50
54938;DHT22;52756;52.826;6.214;2022-08-01T06:18:51;19.00;70.50
54938;DHT22;52756;52.826;6.214;2022-08-01T06:21:17;19.00;70.40
54938;DHT22;52756;52.826;6.214;2022-08-01T06:23:42;19.00;70.00
54938;DHT22;52756;52.826;6.214;2022-08-01T06:26:09;19.00;69.50
54938;DHT22;52756;52.826;6.214;2022-08-01T06:28:35;19.00;69.50
54938;DHT22;52756;52.826;6.214;2022-08-01T06:31:01;19.00;69.60
54938;DHT22;52756;52.826;6.214;2022-08-01T06:33:27;19.00;69.60
54938;DHT22;52756;52.826;6.214;2022-08-01T06:35:52;19.00;69.60
54938;DHT22;52756;52.826;6.214;2022-08-01T06:38:18;19.00;69.60
54938;DHT22;52756;52.826;6.214;2022-08-01T06:40:44;19.00;69.30
54938;DHT22;52756;52.826;6.214;2022-08-01T06:43:10;19.10;69.30
54938;DHT22;52756;52.826;6.214;2022-08-01T06:45:40;19.10;69.70
54938;DHT22;52756;52.826;6.214;2022-08-01T06:48:06;19.10;69.20
54938;DHT22;52756;52.826;6.214;2022-08-01T06:50:32;19.00;68.90
54938;DHT22;52756;52.826;6.214;2022-08-01T06:52:58;19.00;68.90
54938;DHT22;52756;52.826;6.214;2022-08-01T06:55:23;19.00;68.70
54938;DHT22;52756;52.826;6.214;2022-08-01T06:57:53;19.00;68.70
54938;DHT22;52756;52.826;6.214;2022-08-01T07:00:20;18.90;69.30
54938;DHT22;52756;52.826;6.214;2022-08-01T07:02:57;19.00;69.10
54938;DHT22;52756;52.826;6.214;2022-08-01T07:05:25;19.00;68.70
54938;DHT22;52756;52.826;6.214;2022-08-01T07:07:51;19.00;69.10
54938;DHT22;52756;52.826;6.214;2022-08-01T07:10:17;19.00;68.30
54938;DHT22;52756;52.826;6.214;2022-08-01T07:12:42;19.00;68.40
54938;DHT22;52756;52.826;6.214;2022-08-01T07:15:09;19.00;68.20
54938;DHT22;52756;52.826;6.214;2022-08-01T07:17:39;19.10;68.40
54938;DHT22;52756;52.826;6.214;2022-08-01T07:20:10;19.10;68.30
54938;DHT22;52756;52.826;6.214;2022-08-01T07:22:37;19.10;67.80
54938;DHT22;52756;52.826;6.214;2022-08-01T07:25:04;19.20;68.20
54938;DHT22;52756;52.826;6.214;2022-08-01T07:27:30;19.20;68.10
54938;DHT22;52756;52.826;6.214;2022-08-01T07:29:56;19.30;68.00
54938;DHT22;52756;52.826;6.214;2022-08-01T07:32:22;19.40;68.30
54938;DHT22;52756;52.826;6.214;2022-08-01T07:34:47;19.40;67.90
54938;DHT22;52756;52.826;6.214;2022-08-01T07:37:13;19.50;67.30
54938;DHT22;52756;52.826;6.214;2022-08-01T07:39:39;19.60;67.20
54938;DHT22;52756;52.826;6.214;2022-08-01T07:42:04;19.70;67.10
54938;DHT22;52756;52.826;6.214;2022-08-01T07:44:30;19.70;67.10
54938;DHT22;52756;52.826;6.214;2022-08-01T07:46:56;19.80;66.60
54938;DHT22;52756;52.826;6.214;2022-08-01T07:49:21;19.90;66.50
54938;DHT22;52756;52.826;6.214;2022-08-01T07:51:47;20.00;65.50
54938;DHT22;52756;52.826;6.214;2022-08-01T07:54:13;20.00;65.50
54938;DHT22;52756;52.826;6.214;2022-08-01T07:56:39;20.10;65.40
54938;DHT22;52756;52.826;6.214;2022-08-01T07:59:04;20.10;65.40
54938;DHT22;52756;52.826;6.214;2022-08-01T08:01:30;20.20;64.00
54938;DHT22;52756;52.826;6.214;2022-08-01T08:03:56;20.20;63.60
54938;DHT22;52756;52.826;6.214;2022-08-01T08:06:21;20.30;64.10
54938;DHT22;52756;52.826;6.214;2022-08-01T08:08:47;20.30;64.50
54938;DHT22;52756;52.826;6.214;2022-08-01T08:11:13;20.30;63.80
54938;DHT22;52756;52.826;6.214;2022-08-01T08:13:39;20.30;63.80
54938;DHT22;52756;52.826;6.214;2022-08-01T08:16:04;20.40;63.70
54938;DHT22;52756;52.826;6.214;2022-08-01T08:18:30;20.50;63.10
54938;DHT22;52756;52.826;6.214;2022-08-01T08:20:56;20.50;62.70
54938;DHT22;52756;52.826;6.214;2022-08-01T08:23:21;20.50;62.90
54938;DHT22;52756;52.826;6.214;2022-08-01T08:26:05;20.60;63.00
54938;DHT22;52756;52.826;6.214;2022-08-01T08:28:31;20.70;63.30
54938;DHT22;52756;52.826;6.214;2022-08-01T08:30:57;20.80;62.20
54938;DHT22;52756;52.826;6.214;2022-08-01T08:33:22;21.00;62.50
54938;DHT22;52756;52.826;6.214;2022-08-01T08:35:48;21.10;62.00
54938;DHT22;52756;52.826;6.214;2022-08-01T08:38:14;21.20;61.20
54938;DHT22;52756;52.826;6.214;2022-08-01T08:40:40;21.30;61.30
54938;DHT22;52756;52.826;6.214;2022-08-01T08:43:06;21.40;60.70
54938;DHT22;52756;52.826;6.214;2022-08-01T08:45:32;21.50;60.00
54938;DHT22;52756;52.826;6.214;2022-08-01T08:47:59;21.60;59.70
54938;DHT22;52756;52.826;6.214;2022-08-01T08:50:26;21.70;59.60
54938;DHT22;52756;52.826;6.214;2022-08-01T08:52:54;21.80;59.60
54938;DHT22;52756;52.826;6.214;2022-08-01T08:55:21;21.80;58.90
54938;DHT22;52756;52.826;6.214;2022-08-01T08:57:47;21.90;58.10
54938;DHT22;52756;52.826;6.214;2022-08-01T09:00:14;21.90;57.70
54938;DHT22;52756;52.826;6.214;2022-08-01T09:02:42;21.90;58.00
54938;DHT22;52756;52.826;6.214;2022-08-01T09:05:09;21.90;58.10
54938;DHT22;52756;52.826;6.214;2022-08-01T09:07:35;21.90;57.40
54938;DHT22;52756;52.826;6.214;2022-08-01T09:10:00;22.00;58.10
54938;DHT22;52756;52.826;6.214;2022-08-01T09:12:26;22.00;58.50
54938;DHT22;52756;52.826;6.214;2022-08-01T09:14:52;22.10;57.70
54938;DHT22;52756;52.826;6.214;2022-08-01T09:17:19;22.10;56.90
54938;DHT22;52756;52.826;6.214;2022-08-01T09:19:50;22.10;57.00
54938;DHT22;52756;52.826;6.214;2022-08-01T09:22:21;22.20;56.30
54938;DHT22;52756;52.826;6.214;2022-08-01T09:25:08;22.20;56.00
54938;DHT22;52756;52.826;6.214;2022-08-01T09:27:35;22.30;55.60
54938;DHT22;52756;52.826;6.214;2022-08-01T09:30:14;22.30;56.10
54938;DHT22;52756;52.826;6.214;2022-08-01T09:33:12;22.30;55.80
54938;DHT22;52756;52.826;6.214;2022-08-01T09:35:38;22.40;55.80
54938;DHT22;52756;52.826;6.214;2022-08-01T09:38:19;22.40;56.20
54938;DHT22;52756;52.826;6.214;2022-08-01T09:43:15;22.60;55.10
54938;DHT22;52756;52.826;6.214;2022-08-01T09:45:41;22.70;55.80
54938;DHT22;52756;52.826;6.214;2022-08-01T09:48:08;22.90;56.10
54938;DHT22;52756;52.826;6.214;2022-08-01T09:50:41;23.00;55.10
54938;DHT22;52756;52.826;6.214;2022-08-01T09:53:09;23.20;54.10
54938;DHT22;52756;52.826;6.214;2022-08-01T09:55:36;23.30;54.30
54938;DHT22;52756;52.826;6.214;2022-08-01T09:58:02;23.40;54.20
54938;DHT22;52756;52.826;6.214;2022-08-01T10:00:30;23.50;53.30
54938;DHT22;52756;52.826;6.214;2022-08-01T10:02:56;23.70;53.30
54938;DHT22;52756;52.826;6.214;2022-08-01T10:05:33;23.80;52.40
54938;DHT22;52756;52.826;6.214;2022-08-01T10:08:04;24.00;53.60
54938;DHT22;52756;52.826;6.214;2022-08-01T10:10:31;24.10;51.90
54938;DHT22;52756;52.826;6.214;2022-08-01T10:12:58;24.20;51.90
54938;DHT22;52756;52.826;6.214;2022-08-01T10:15:25;24.20;50.30
54938;DHT22;52756;52.826;6.214;2022-08-01T10:17:56;24.10;50.00
54938;DHT22;52756;52.826;6.214;2022-08-01T10:20:30;24.00;50.40
54938;DHT22;52756;52.826;6.214;2022-08-01T10:22:59;24.00;50.80
54938;DHT22;52756;52.826;6.214;2022-08-01T10:25:27;24.10;50.50
54938;DHT22;52756;52.826;6.214;2022-08-01T10:27:54;24.20;49.70
54938;DHT22;52756;52.826;6.214;2022-08-01T10:30:23;24.10;49.40
54938;DHT22;52756;52.826;6.214;2022-08-01T10:32:50;24.10;50.00
54938;DHT22;52756;52.826;6.214;2022-08-01T10:35:18;24.20;50.60
54938;DHT22;52756;52.826;6.214;2022-08-01T10:37:45;24.10;49.50
54938;DHT22;52756;52.826;6.214;2022-08-01T10:40:15;24.20;49.40
54938;DHT22;52756;52.826;6.214;2022-08-01T10:42:45;24.20;49.30
54938;DHT22;52756;52.826;6.214;2022-08-01T10:45:13;24.30;50.00
54938;DHT22;52756;52.826;6.214;2022-08-01T10:47:51;24.40;49.90
54938;DHT22;52756;52.826;6.214;2022-08-01T10:50:31;24.50;50.60
54938;DHT22;52756;52.826;6.214;2022-08-01T10:53:18;24.60;49.80
54938;DHT22;52756;52.826;6.214;2022-08-01T10:58:33;24.70;49.30
54938;DHT22;52756;52.826;6.214;2022-08-01T11:03:38;24.80;48.10
54938;DHT22;52756;52.826;6.214;2022-08-01T11:06:04;24.80;46.30
54938;DHT22;52756;52.826;6.214;2022-08-01T11:08:30;24.70;45.30
54938;DHT22;52756;52.826;6.214;2022-08-01T11:11:02;24.60;46.50
54938;DHT22;52756;52.826;6.214;2022-08-01T11:16:40;24.50;48.50
54938;DHT22;52756;52.826;6.214;2022-08-01T11:19:07;24.40;48.90
54938;DHT22;52756;52.826;6.214;2022-08-01T11:27:29;24.60;46.80
54938;DHT22;52756;52.826;6.214;2022-08-01T11:32:45;24.50;49.30
54938;DHT22;52756;52.826;6.214;2022-08-01T11:35:11;24.60;48.30
54938;DHT22;52756;52.826;6.214;2022-08-01T11:37:37;24.60;48.60
54938;DHT22;52756;52.826;6.214;2022-08-01T11:40:27;24.60;48.60
54938;DHT22;52756;52.826;6.214;2022-08-01T11:45:51;24.80;48.00
54938;DHT22;52756;52.826;6.214;2022-08-01T11:48:23;24.80;47.40
54938;DHT22;52756;52.826;6.214;2022-08-01T11:50:53;24.80;48.00
54938;DHT22;52756;52.826;6.214;2022-08-01T11:53:19;24.90;47.30
54938;DHT22;52756;52.826;6.214;2022-08-01T11:55:47;24.90;47.30
54938;DHT22;52756;52.826;6.214;2022-08-01T11:58:14;25.00;47.30
54938;DHT22;52756;52.826;6.214;2022-08-01T12:00:40;25.00;47.20
54938;DHT22;52756;52.826;6.214;2022-08-01T12:03:07;25.10;47.30
54938;DHT22;52756;52.826;6.214;2022-08-01T12:05:35;25.20;47.60
54938;DHT22;52756;52.826;6.214;2022-08-01T12:08:03;25.20;47.00
54938;DHT22;52756;52.826;6.214;2022-08-01T12:10:33;25.20;47.30
54938;DHT22;52756;52.826;6.214;2022-08-01T12:13:03;25.40;46.80
54938;DHT22;52756;52.826;6.214;2022-08-01T12:15:33;25.40;45.60
54938;DHT22;52756;52.826;6.214;2022-08-01T12:18:06;25.50;45.30
54938;DHT22;52756;52.826;6.214;2022-08-01T12:20:37;25.50;43.80
54938;DHT22;52756;52.826;6.214;2022-08-01T12:23:08;25.50;45.10
54938;DHT22;52756;52.826;6.214;2022-08-01T12:25:35;25.60;44.90
54938;DHT22;52756;52.826;6.214;2022-08-01T12:28:04;25.60;44.70
54938;DHT22;52756;52.826;6.214;2022-08-01T12:30:32;25.70;44.50
54938;DHT22;52756;52.826;6.214;2022-08-01T12:33:02;25.70;45.60
54938;DHT22;52756;52.826;6.214;2022-08-01T12:35:29;25.70;44.80
54938;DHT22;52756;52.826;6.214;2022-08-01T12:37:57;25.80;44.30
54938;DHT22;52756;52.826;6.214;2022-08-01T12:40:31;25.90;43.70
54938;DHT22;52756;52.826;6.214;2022-08-01T12:43:03;25.90;42.70
54938;DHT22;52756;52.826;6.214;2022-08-01T12:45:38;26.00;40.80
54938;DHT22;52756;52.826;6.214;2022-08-01T12:48:10;26.00;41.00
54938;DHT22;52756;52.826;6.214;2022-08-01T12:50:38;26.00;42.00
54938;DHT22;52756;52.826;6.214;2022-08-01T12:53:05;26.10;43.30
54938;DHT22;52756;52.826;6.214;2022-08-01T12:55:31;26.20;42.10
54938;DHT22;52756;52.826;6.214;2022-08-01T12:58:11;26.20;42.30
54938;DHT22;52756;52.826;6.214;2022-08-01T13:00:38;26.30;41.80
54938;DHT22;52756;52.826;6.214;2022-08-01T13:03:09;26.40;41.40
54938;DHT22;52756;52.826;6.214;2022-08-01T13:05:48;26.50;42.10
54938;DHT22;52756;52.826;6.214;2022-08-01T13:08:40;26.60;41.70
54938;DHT22;52756;52.826;6.214;2022-08-01T13:11:11;26.70;42.80
54938;DHT22;52756;52.826;6.214;2022-08-01T13:13:49;26.70;41.10
54938;DHT22;52756;52.826;6.214;2022-08-01T13:16:24;26.70;40.20
54938;DHT22;52756;52.826;6.214;2022-08-01T13:18:51;26.70;40.30
54938;DHT22;52756;52.826;6.214;2022-08-01T13:21:23;26.70;40.70
54938;DHT22;52756;52.826;6.214;2022-08-01T13:29:09;26.70;41.50
54938;DHT22;52756;52.826;6.214;2022-08-01T13:31:37;26.70;40.80
54938;DHT22;52756;52.826;6.214;2022-08-01T13:34:03;26.70;39.90
54938;DHT22;52756;52.826;6.214;2022-08-01T13:36:29;26.70;40.50
54938;DHT22;52756;52.826;6.214;2022-08-01T13:38:59;26.70;40.50
54938;DHT22;52756;52.826;6.214;2022-08-01T13:41:44;26.70;41.80
54938;DHT22;52756;52.826;6.214;2022-08-01T13:44:11;26.80;42.50
54938;DHT22;52756;52.826;6.214;2022-08-01T13:46:37;26.80;39.50
54938;DHT22;52756;52.826;6.214;2022-08-01T13:49:04;26.80;39.70
54938;DHT22;52756;52.826;6.214;2022-08-01T13:51:31;26.90;40.40
54938;DHT22;52756;52.826;6.214;2022-08-01T13:53:56;27.00;40.50
54938;DHT22;52756;52.826;6.214;2022-08-01T13:56:23;27.00;41.00
54938;DHT22;52756;52.826;6.214;2022-08-01T13:58:49;27.00;40.20
54938;DHT22;52756;52.826;6.214;2022-08-01T14:01:15;27.10;39.10
54938;DHT22;52756;52.826;6.214;2022-08-01T14:03:41;27.20;40.20
54938;DHT22;52756;52.826;6.214;2022-08-01T14:06:06;27.20;38.60
54938;DHT22;52756;52.826;6.214;2022-08-01T14:08:32;27.20;38.70
54938;DHT22;52756;52.826;6.214;2022-08-01T14:10:58;27.30;39.30
54938;DHT22;52756;52.826;6.214;2022-08-01T14:13:25;27.30;38.00
54938;DHT22;52756;52.826;6.214;2022-08-01T14:15:51;27.30;38.20
54938;DHT22;52756;52.826;6.214;2022-08-01T14:18:17;27.30;37.20
54938;DHT22;52756;52.826;6.214;2022-08-01T14:20:43;27.40;37.80
54938;DHT22;52756;52.826;6.214;2022-08-01T14:23:09;27.40;38.40
54938;DHT22;52756;52.826;6.214;2022-08-01T14:25:39;27.40;39.00
54938;DHT22;52756;52.826;6.214;2022-08-01T14:28:05;27.50;39.90
54938;DHT22;52756;52.826;6.214;2022-08-01T14:30:32;27.50;39.20
54938;DHT22;52756;52.826;6.214;2022-08-01T14:32:58;27.50;38.20
54938;DHT22;52756;52.826;6.214;2022-08-01T14:35:24;27.40;39.30
54938;DHT22;52756;52.826;6.214;2022-08-01T14:37:50;27.40;40.00
54938;DHT22;52756;52.826;6.214;2022-08-01T14:40:16;27.30;39.60
54938;DHT22;52756;52.826;6.214;2022-08-01T14:42:42;27.30;39.40
54938;DHT22;52756;52.826;6.214;2022-08-01T14:45:11;27.30;39.60
54938;DHT22;52756;52.826;6.214;2022-08-01T14:47:42;27.40;38.60
54938;DHT22;52756;52.826;6.214;2022-08-01T14:50:13;27.30;39.00
54938;DHT22;52756;52.826;6.214;2022-08-01T14:52:40;27.30;39.20
54938;DHT22;52756;52.826;6.214;2022-08-01T14:55:07;27.30;40.10
54938;DHT22;52756;52.826;6.214;2022-08-01T14:57:34;27.30;40.10
54938;DHT22;52756;52.826;6.214;2022-08-01T15:00:00;27.30;38.80
54938;DHT22;52756;52.826;6.214;2022-08-01T15:02:26;27.20;38.70
54938;DHT22;52756;52.826;6.214;2022-08-01T15:04:51;27.20;38.90
54938;DHT22;52756;52.826;6.214;2022-08-01T15:07:17;27.10;38.20
54938;DHT22;52756;52.826;6.214;2022-08-01T15:09:44;27.00;37.90
54938;DHT22;52756;52.826;6.214;2022-08-01T15:12:11;27.00;38.10
54938;DHT22;52756;52.826;6.214;2022-08-01T15:14:36;27.00;38.20
54938;DHT22;52756;52.826;6.214;2022-08-01T15:17:20;26.90;38.00
54938;DHT22;52756;52.826;6.214;2022-08-01T15:19:51;26.90;36.00
54938;DHT22;52756;52.826;6.214;2022-08-01T15:22:16;26.80;36.10
54938;DHT22;52756;52.826;6.214;2022-08-01T15:24:42;26.70;36.20
54938;DHT22;52756;52.826;6.214;2022-08-01T15:27:09;26.50;36.10
54938;DHT22;52756;52.826;6.214;2022-08-01T15:29:36;26.30;36.10
54938;DHT22;52756;52.826;6.214;2022-08-01T15:32:04;26.20;37.30
54938;DHT22;52756;52.826;6.214;2022-08-01T15:34:30;26.20;37.30
54938;DHT22;52756;52.826;6.214;2022-08-01T15:36:57;26.10;38.10
54938;DHT22;52756;52.826;6.214;2022-08-01T15:39:23;26.20;37.50
54938;DHT22;52756;52.826;6.214;2022-08-01T15:41:49;26.10;37.00
54938;DHT22;52756;52.826;6.214;2022-08-01T15:44:15;26.10;37.20
54938;DHT22;52756;52.826;6.214;2022-08-01T15:46:43;26.10;38.10
54938;DHT22;52756;52.826;6.214;2022-08-01T15:49:09;26.10;39.30
54938;DHT22;52756;52.826;6.214;2022-08-01T15:51:36;26.20;39.30
54938;DHT22;52756;52.826;6.214;2022-08-01T15:54:01;26.20;39.40
54938;DHT22;52756;52.826;6.214;2022-08-01T15:56:31;26.20;37.70
54938;DHT22;52756;52.826;6.214;2022-08-01T15:58:57;26.20;37.80
54938;DHT22;52756;52.826;6.214;2022-08-01T16:01:23;26.20;38.70
54938;DHT22;52756;52.826;6.214;2022-08-01T16:03:52;26.30;38.90
54938;DHT22;52756;52.826;6.214;2022-08-01T16:06:18;26.30;39.10
54938;DHT22;52756;52.826;6.214;2022-08-01T16:08:43;26.30;37.90
54938;DHT22;52756;52.826;6.214;2022-08-01T16:11:09;26.40;38.60